sensor_id;sensor_type;location;lat;lon;timestamp;temperature;humidity
77829;DHT22;67019;51.034;3.728;2023-05-25T00:00:17;12.30;95.70
77829;DHT22;67019;51.034;3.728;2023-05-25T00:02:46;12.40;95.50
77829;DHT22;67019;51.034;3.728;2023-05-25T00:05:13;12.30;95.40
77829;DHT22;67019;51.034;3.728;2023-05-25T00:07:43;12.40;95.70
77829;DHT22;67019;51.034;3.728;2023-05-25T00:10:10;12.30;95.60
77829;DHT22;67019;51.034;3.728;2023-05-25T00:12:38;12.40;95.90
77829;DHT22;67019;51.034;3.728;2023-05-25T00:15:06;10.40;95.20
77829;DHT22;67019;51.034;3.728;2023-05-25T00:20:03;12.60;95.40
77829;DHT22;67019;51.034;3.728;2023-05-25T00:22:35;12.30;95.90
77829;DHT22;67019;51.034;3.728;2023-05-25T00:25:03;12.40;95.80
77829;DHT22;67019;51.034;3.728;2023-05-25T00:27:32;12.30;96.10
77829;DHT22;67019;51.034;3.728;2023-05-25T00:30:00;12.50;96.00
77829;DHT22;67019;51.034;3.728;2023-05-25T00:32:28;12.30;96.20
77829;DHT22;67019;51.034;3.728;2023-05-25T00:34:56;12.20;96.40
77829;DHT22;67019;51.034;3.728;2023-05-25T00:37:24;12.00;97.00
77829;DHT22;67019;51.034;3.728;2023-05-25T00:39:51;12.00;96.90
77829;DHT22;67019;51.034;3.728;2023-05-25T00:42:20;11.90;96.70
77829;DHT22;67019;51.034;3.728;2023-05-25T00:44:48;12.00;97.00
77829;DHT22;67019;51.034;3.728;2023-05-25T00:47:16;11.90;97.30
77829;DHT22;67019;51.034;3.728;2023-05-25T00:49:43;11.90;97.30
77829;DHT22;67019;51.034;3.728;2023-05-25T00:52:12;11.80;97.80
77829;DHT22;67019;51.034;3.728;2023-05-25T00:54:40;11.60;98.00
77829;DHT22;67019;51.034;3.728;2023-05-25T00:57:09;11.60;98.20
77829;DHT22;67019;51.034;3.728;2023-05-25T00:59:40;11.90;97.90
77829;DHT22;67019;51.034;3.728;2023-05-25T01:02:09;11.90;98.60
77829;DHT22;67019;51.034;3.728;2023-05-25T01:04:53;11.80;97.70
77829;DHT22;67019;51.034;3.728;2023-05-25T01:07:26;11.60;98.60
77829;DHT22;67019;51.034;3.728;2023-05-25T01:10:03;11.40;98.70
77829;DHT22;67019;51.034;3.728;2023-05-25T01:12:38;11.30;99.00
77829;DHT22;67019;51.034;3.728;2023-05-25T01:15:02;11.30;99.50
77829;DHT22;67019;51.034;3.728;2023-05-25T01:17:31;11.40;98.60
77829;DHT22;67019;51.034;3.728;2023-05-25T01:22:39;11.20;99.60
77829;DHT22;67019;51.034;3.728;2023-05-25T01:25:27;11.30;99.90
77829;DHT22;67019;51.034;3.728;2023-05-25T01:27:59;11.40;99.70
77829;DHT22;67019;51.034;3.728;2023-05-25T01:30:27;11.70;99.10
77829;DHT22;67019;51.034;3.728;2023-05-25T01:32:58;11.50;98.90
77829;DHT22;67019;51.034;3.728;2023-05-25T01:35:27;11.50;99.10
77829;DHT22;67019;51.034;3.728;2023-05-25T01:37:57;11.60;99.20
77829;DHT22;67019;51.034;3.728;2023-05-25T01:40:26;11.30;99.50
77829;DHT22;67019;51.034;3.728;2023-05-25T01:42:54;11.30;99.80
77829;DHT22;67019;51.034;3.728;2023-05-25T01:45:22;11.20;99.50
77829;DHT22;67019;51.034;3.728;2023-05-25T01:53:18;11.20;99.90
77829;DHT22;67019;51.034;3.728;2023-05-25T01:55:54;11.60;99.90
77829;DHT22;67019;51.034;3.728;2023-05-25T01:58:24;11.50;99.80
77829;DHT22;67019;51.034;3.728;2023-05-25T02:00:53;11.40;99.80
77829;DHT22;67019;51.034;3.728;2023-05-25T02:10:44;11.10;99.90
77829;DHT22;67019;51.034;3.728;2023-05-25T02:13:12;11.10;99.90
77829;DHT22;67019;51.034;3.728;2023-05-25T02:15:39;11.00;99.90
77829;DHT22;67019;51.034;3.728;2023-05-25T02:18:07;11.10;99.90
77829;DHT22;67019;51.034;3.728;2023-05-25T02:20:35;11.20;99.90
77829;DHT22;67019;51.034;3.728;2023-05-25T02:23:03;11.20;99.90
77829;DHT22;67019;51.034;3.728;2023-05-25T02:25:31;11.00;99.90
77829;DHT22;67019;51.034;3.728;2023-05-25T02:27:58;10.90;99.90
77829;DHT22;67019;51.034;3.728;2023-05-25T02:30:26;10.90;99.90
77829;DHT22;67019;51.034;3.728;2023-05-25T02:32:54;10.90;99.90
77829;DHT22;67019;51.034;3.728;2023-05-25T02:35:22;11.00;99.90
77829;DHT22;67019;51.034;3.728;2023-05-25T02:40:17;11.40;99.90
77829;DHT22;67019;51.034;3.728;2023-05-25T02:42:44;11.30;99.90
77829;DHT22;67019;51.034;3.728;2023-05-25T02:45:12;11.20;99.90
77829;DHT22;67019;51.034;3.728;2023-05-25T02:52:35;11.00;99.90
77829;DHT22;67019;51.034;3.728;2023-05-25T02:55:03;10.90;99.90
77829;DHT22;67019;51.034;3.728;2023-05-25T02:57:31;10.70;99.90
77829;DHT22;67019;51.034;3.728;2023-05-25T03:00:00;10.90;99.90
77829;DHT22;67019;51.034;3.728;2023-05-25T03:02:28;11.00;99.90
77829;DHT22;67019;51.034;3.728;2023-05-25T03:04:56;10.80;99.90
77829;DHT22;67019;51.034;3.728;2023-05-25T03:09:53;10.70;99.90
77829;DHT22;67019;51.034;3.728;2023-05-25T03:14:48;10.90;99.90
77829;DHT22;67019;51.034;3.728;2023-05-25T03:17:15;11.10;99.90
77829;DHT22;67019;51.034;3.728;2023-05-25T03:19:43;11.00;99.90
77829;DHT22;67019;51.034;3.728;2023-05-25T03:22:11;11.10;99.90
77829;DHT22;67019;51.034;3.728;2023-05-25T03:24:38;10.90;99.90
77829;DHT22;67019;51.034;3.728;2023-05-25T03:34:29;10.90;99.90
77829;DHT22;67019;51.034;3.728;2023-05-25T03:39:25;10.80;99.90
77829;DHT22;67019;51.034;3.728;2023-05-25T03:41:53;10.90;99.90
77829;DHT22;67019;51.034;3.728;2023-05-25T03:44:22;10.90;99.90
77829;DHT22;67019;51.034;3.728;2023-05-25T03:46:50;11.10;99.90
77829;DHT22;67019;51.034;3.728;2023-05-25T03:49:18;10.90;99.90
77829;DHT22;67019;51.034;3.728;2023-05-25T03:51:47;10.90;99.90
77829;DHT22;67019;51.034;3.728;2023-05-25T03:56:42;10.80;99.90
77829;DHT22;67019;51.034;3.728;2023-05-25T03:59:10;10.80;99.90
77829;DHT22;67019;51.034;3.728;2023-05-25T04:01:38;10.80;99.90
77829;DHT22;67019;51.034;3.728;2023-05-25T04:04:06;10.70;99.90
77829;DHT22;67019;51.034;3.728;2023-05-25T04:09:04;10.80;99.90
77829;DHT22;67019;51.034;3.728;2023-05-25T04:13:59;10.80;99.90
77829;DHT22;67019;51.034;3.728;2023-05-25T04:18:54;10.70;99.90
77829;DHT22;67019;51.034;3.728;2023-05-25T04:21:22;10.80;99.90
77829;DHT22;67019;51.034;3.728;2023-05-25T04:26:18;11.10;99.90
77829;DHT22;67019;51.034;3.728;2023-05-25T04:36:10;11.00;99.90
77829;DHT22;67019;51.034;3.728;2023-05-25T04:38:39;11.10;99.90
77829;DHT22;67019;51.034;3.728;2023-05-25T04:48:33;11.20;99.90
77829;DHT22;67019;51.034;3.728;2023-05-25T04:51:02;11.00;99.90
77829;DHT22;67019;51.034;3.728;2023-05-25T04:53:30;11.20;99.90
77829;DHT22;67019;51.034;3.728;2023-05-25T04:58:30;11.40;99.90
77829;DHT22;67019;51.034;3.728;2023-05-25T05:01:00;11.10;99.90
77829;DHT22;67019;51.034;3.728;2023-05-25T05:03:27;9.20;99.90
77829;DHT22;67019;51.034;3.728;2023-05-25T05:05:55;11.10;99.90
77829;DHT22;67019;51.034;3.728;2023-05-25T05:08:23;10.90;99.90
77829;DHT22;67019;51.034;3.728;2023-05-25T05:10:50;11.10;99.90
77829;DHT22;67019;51.034;3.728;2023-05-25T05:13:19;12.00;99.90
77829;DHT22;67019;51.034;3.728;2023-05-25T05:15:47;11.30;99.90
77829;DHT22;67019;51.034;3.728;2023-05-25T05:18:14;11.60;99.90
77829;DHT22;67019;51.034;3.728;2023-05-25T05:20:42;11.60;99.90
77829;DHT22;67019;51.034;3.728;2023-05-25T05:23:10;11.60;99.90
77829;DHT22;67019;51.034;3.728;2023-05-25T05:25:37;11.70;99.90
77829;DHT22;67019;51.034;3.728;2023-05-25T05:28:05;11.70;99.90
77829;DHT22;67019;51.034;3.728;2023-05-25T05:30:33;11.50;99.90
77829;DHT22;67019;51.034;3.728;2023-05-25T05:33:02;11.50;99.90
77829;DHT22;67019;51.034;3.728;2023-05-25T05:35:31;11.80;99.90
77829;DHT22;67019;51.034;3.728;2023-05-25T05:37:58;11.90;99.90
77829;DHT22;67019;51.034;3.728;2023-05-25T05:40:26;11.90;99.90
77829;DHT22;67019;51.034;3.728;2023-05-25T05:42:53;11.90;99.90
77829;DHT22;67019;51.034;3.728;2023-05-25T05:45:21;11.80;99.90
77829;DHT22;67019;51.034;3.728;2023-05-25T05:47:48;11.90;99.90
77829;DHT22;67019;51.034;3.728;2023-05-25T05:50:16;12.30;99.90
77829;DHT22;67019;51.034;3.728;2023-05-25T05:52:44;12.40;99.30
77829;DHT22;67019;51.034;3.728;2023-05-25T05:55:11;12.50;99.20
77829;DHT22;67019;51.034;3.728;2023-05-25T05:57:40;12.60;99.30
77829;DHT22;67019;51.034;3.728;2023-05-25T06:00:10;12.50;98.90
77829;DHT22;67019;51.034;3.728;2023-05-25T06:02:38;12.60;98.50
77829;DHT22;67019;51.034;3.728;2023-05-25T06:05:05;12.60;98.50
77829;DHT22;67019;51.034;3.728;2023-05-25T06:07:33;12.60;98.60
77829;DHT22;67019;51.034;3.728;2023-05-25T06:10:02;12.80;98.40
77829;DHT22;67019;51.034;3.728;2023-05-25T06:12:31;12.90;97.50
77829;DHT22;67019;51.034;3.728;2023-05-25T06:14:59;12.50;98.40
77829;DHT22;67019;51.034;3.728;2023-05-25T06:17:46;12.60;98.50
77829;DHT22;67019;51.034;3.728;2023-05-25T06:24:07;13.00;97.50
77829;DHT22;67019;51.034;3.728;2023-05-25T06:30:09;13.00;97.00
77829;DHT22;67019;51.034;3.728;2023-05-25T06:36:00;13.00;96.80
77829;DHT22;67019;51.034;3.728;2023-05-25T06:42:06;13.30;96.30
77829;DHT22;67019;51.034;3.728;2023-05-25T06:44:35;12.90;96.50
77829;DHT22;67019;51.034;3.728;2023-05-25T06:47:02;12.90;96.80
77829;DHT22;67019;51.034;3.728;2023-05-25T06:49:49;13.10;96.80
77829;DHT22;67019;51.034;3.728;2023-05-25T06:55:47;13.30;95.70
77829;DHT22;67019;51.034;3.728;2023-05-25T07:01:36;13.60;95.60
77829;DHT22;67019;51.034;3.728;2023-05-25T07:04:04;13.70;95.30
77829;DHT22;67019;51.034;3.728;2023-05-25T07:06:32;13.60;95.00
77829;DHT22;67019;51.034;3.728;2023-05-25T07:08:59;13.80;94.80
77829;DHT22;67019;51.034;3.728;2023-05-25T07:11:27;13.80;94.90
77829;DHT22;67019;51.034;3.728;2023-05-25T07:13:54;14.10;94.20
77829;DHT22;67019;51.034;3.728;2023-05-25T07:16:22;14.00;94.30
77829;DHT22;67019;51.034;3.728;2023-05-25T07:18:53;13.80;94.50
77829;DHT22;67019;51.034;3.728;2023-05-25T07:21:21;13.90;94.70
77829;DHT22;67019;51.034;3.728;2023-05-25T07:23:50;14.00;94.40
77829;DHT22;67019;51.034;3.728;2023-05-25T07:26:18;14.10;94.30
77829;DHT22;67019;51.034;3.728;2023-05-25T07:28:47;14.00;94.00
77829;DHT22;67019;51.034;3.728;2023-05-25T07:31:14;14.10;93.80
77829;DHT22;67019;51.034;3.728;2023-05-25T07:33:44;14.20;93.90
77829;DHT22;67019;51.034;3.728;2023-05-25T07:39:35;14.10;94.00
77829;DHT22;67019;51.034;3.728;2023-05-25T07:45:26;14.00;94.00
77829;DHT22;67019;51.034;3.728;2023-05-25T07:47:53;14.30;93.10
77829;DHT22;67019;51.034;3.728;2023-05-25T07:50:21;14.40;92.80
77829;DHT22;67019;51.034;3.728;2023-05-25T07:56:11;14.30;93.20
77829;DHT22;67019;51.034;3.728;2023-05-25T07:58:39;14.50;93.10
77829;DHT22;67019;51.034;3.728;2023-05-25T08:01:07;14.80;92.40
77829;DHT22;67019;51.034;3.728;2023-05-25T08:03:34;15.20;91.80
77829;DHT22;67019;51.034;3.728;2023-05-25T08:06:02;15.50;91.30
77829;DHT22;67019;51.034;3.728;2023-05-25T08:08:30;15.70;90.80
77829;DHT22;67019;51.034;3.728;2023-05-25T08:10:57;15.90;90.20
77829;DHT22;67019;51.034;3.728;2023-05-25T08:13:25;15.70;90.20
77829;DHT22;67019;51.034;3.728;2023-05-25T08:15:53;15.70;90.40
77829;DHT22;67019;51.034;3.728;2023-05-25T08:18:21;15.80;90.60
77829;DHT22;67019;51.034;3.728;2023-05-25T08:20:48;15.90;89.60
77829;DHT22;67019;51.034;3.728;2023-05-25T08:23:18;16.00;89.20
77829;DHT22;67019;51.034;3.728;2023-05-25T08:25:45;16.10;88.60
77829;DHT22;67019;51.034;3.728;2023-05-25T08:28:13;16.00;89.30
77829;DHT22;67019;51.034;3.728;2023-05-25T08:30:44;16.00;88.40
77829;DHT22;67019;51.034;3.728;2023-05-25T08:33:11;15.70;89.40
77829;DHT22;67019;51.034;3.728;2023-05-25T08:35:40;15.80;89.10
77829;DHT22;67019;51.034;3.728;2023-05-25T08:38:08;15.70;89.30
77829;DHT22;67019;51.034;3.728;2023-05-25T08:40:36;15.20;90.00
77829;DHT22;67019;51.034;3.728;2023-05-25T08:43:05;15.20;90.00
77829;DHT22;67019;51.034;3.728;2023-05-25T08:45:33;15.60;89.10
77829;DHT22;67019;51.034;3.728;2023-05-25T08:48:02;16.00;87.20
77829;DHT22;67019;51.034;3.728;2023-05-25T08:50:31;16.10;86.80
77829;DHT22;67019;51.034;3.728;2023-05-25T08:53:01;16.20;86.80
77829;DHT22;67019;51.034;3.728;2023-05-25T08:55:32;16.40;84.00
77829;DHT22;67019;51.034;3.728;2023-05-25T09:03:57;16.60;81.20
77829;DHT22;67019;51.034;3.728;2023-05-25T09:06:25;16.60;82.00
77829;DHT22;67019;51.034;3.728;2023-05-25T09:08:55;17.20;78.30
77829;DHT22;67019;51.034;3.728;2023-05-25T09:11:25;16.50;80.20
77829;DHT22;67019;51.034;3.728;2023-05-25T09:13:54;16.60;80.90
77829;DHT22;67019;51.034;3.728;2023-05-25T09:16:24;17.00;81.50
77829;DHT22;67019;51.034;3.728;2023-05-25T09:18:52;17.40;81.40
77829;DHT22;67019;51.034;3.728;2023-05-25T09:21:21;17.10;81.30
77829;DHT22;67019;51.034;3.728;2023-05-25T09:23:51;16.80;82.00
77829;DHT22;67019;51.034;3.728;2023-05-25T09:26:19;16.70;82.30
77829;DHT22;67019;51.034;3.728;2023-05-25T09:28:47;16.00;84.80
77829;DHT22;67019;51.034;3.728;2023-05-25T09:31:18;16.20;84.40
77829;DHT22;67019;51.034;3.728;2023-05-25T09:33:47;16.60;82.60
77829;DHT22;67019;51.034;3.728;2023-05-25T09:36:16;16.50;83.90
77829;DHT22;67019;51.034;3.728;2023-05-25T09:38:47;16.70;83.00
77829;DHT22;67019;51.034;3.728;2023-05-25T09:41:16;16.20;82.50
77829;DHT22;67019;51.034;3.728;2023-05-25T09:43:46;16.10;84.00
77829;DHT22;67019;51.034;3.728;2023-05-25T09:46:14;16.20;81.50
77829;DHT22;67019;51.034;3.728;2023-05-25T09:48:42;16.30;81.70
77829;DHT22;67019;51.034;3.728;2023-05-25T09:51:11;16.50;82.80
77829;DHT22;67019;51.034;3.728;2023-05-25T09:53:38;16.80;81.10
77829;DHT22;67019;51.034;3.728;2023-05-25T09:56:06;16.90;81.00
77829;DHT22;67019;51.034;3.728;2023-05-25T09:58:37;17.30;80.70
77829;DHT22;67019;51.034;3.728;2023-05-25T10:01:06;17.70;79.50
77829;DHT22;67019;51.034;3.728;2023-05-25T10:03:33;17.70;78.00
77829;DHT22;67019;51.034;3.728;2023-05-25T10:06:02;17.40;79.60
77829;DHT22;67019;51.034;3.728;2023-05-25T10:08:31;17.30;79.10
77829;DHT22;67019;51.034;3.728;2023-05-25T10:11:00;17.30;79.20
77829;DHT22;67019;51.034;3.728;2023-05-25T10:13:29;17.20;78.90
77829;DHT22;67019;51.034;3.728;2023-05-25T10:15:58;17.20;79.90
77829;DHT22;67019;51.034;3.728;2023-05-25T10:18:29;17.40;78.90
77829;DHT22;67019;51.034;3.728;2023-05-25T10:21:02;17.40;77.70
77829;DHT22;67019;51.034;3.728;2023-05-25T10:23:34;17.50;77.30
77829;DHT22;67019;51.034;3.728;2023-05-25T10:26:02;17.20;79.00
77829;DHT22;67019;51.034;3.728;2023-05-25T10:28:37;17.40;78.90
77829;DHT22;67019;51.034;3.728;2023-05-25T10:31:08;17.40;78.20
77829;DHT22;67019;51.034;3.728;2023-05-25T10:33:38;17.80;78.00
77829;DHT22;67019;51.034;3.728;2023-05-25T10:36:09;18.30;75.70
77829;DHT22;67019;51.034;3.728;2023-05-25T10:38:42;18.90;74.80
77829;DHT22;67019;51.034;3.728;2023-05-25T10:41:10;18.60;74.60
77829;DHT22;67019;51.034;3.728;2023-05-25T10:43:38;18.20;76.50
77829;DHT22;67019;51.034;3.728;2023-05-25T10:46:07;18.50;74.70
77829;DHT22;67019;51.034;3.728;2023-05-25T10:48:36;18.40;75.70
77829;DHT22;67019;51.034;3.728;2023-05-25T10:51:07;19.00;72.80
77829;DHT22;67019;51.034;3.728;2023-05-25T10:53:34;19.40;71.60
77829;DHT22;67019;51.034;3.728;2023-05-25T10:56:04;19.20;72.30
77829;DHT22;67019;51.034;3.728;2023-05-25T10:58:34;19.10;72.40
77829;DHT22;67019;51.034;3.728;2023-05-25T11:01:11;19.00;72.00
77829;DHT22;67019;51.034;3.728;2023-05-25T11:03:55;19.00;72.80
77829;DHT22;67019;51.034;3.728;2023-05-25T11:09:07;19.30;71.90
77829;DHT22;67019;51.034;3.728;2023-05-25T11:14:22;19.50;70.20
77829;DHT22;67019;51.034;3.728;2023-05-25T11:17:09;19.30;70.30
77829;DHT22;67019;51.034;3.728;2023-05-25T11:19:48;19.30;70.80
77829;DHT22;67019;51.034;3.728;2023-05-25T11:22:22;19.60;69.80
77829;DHT22;67019;51.034;3.728;2023-05-25T11:24:50;19.50;70.70
77829;DHT22;67019;51.034;3.728;2023-05-25T11:27:28;19.60;70.00
77829;DHT22;67019;51.034;3.728;2023-05-25T11:30:02;19.40;69.30
77829;DHT22;67019;51.034;3.728;2023-05-25T11:32:32;19.30;69.70
77829;DHT22;67019;51.034;3.728;2023-05-25T11:35:01;19.10;71.40
77829;DHT22;67019;51.034;3.728;2023-05-25T11:37:30;19.20;70.90
77829;DHT22;67019;51.034;3.728;2023-05-25T11:39:59;19.70;70.10
77829;DHT22;67019;51.034;3.728;2023-05-25T11:42:26;19.70;69.60
77829;DHT22;67019;51.034;3.728;2023-05-25T11:44:56;19.90;68.30
77829;DHT22;67019;51.034;3.728;2023-05-25T11:47:28;19.80;69.10
77829;DHT22;67019;51.034;3.728;2023-05-25T11:49:56;20.40;67.20
77829;DHT22;67019;51.034;3.728;2023-05-25T11:52:26;20.30;65.50
77829;DHT22;67019;51.034;3.728;2023-05-25T11:54:59;19.60;68.60
77829;DHT22;67019;51.034;3.728;2023-05-25T11:57:27;19.90;68.70
77829;DHT22;67019;51.034;3.728;2023-05-25T11:59:56;19.90;68.70
77829;DHT22;67019;51.034;3.728;2023-05-25T12:02:26;20.20;67.80
77829;DHT22;67019;51.034;3.728;2023-05-25T12:04:58;20.20;67.40
77829;DHT22;67019;51.034;3.728;2023-05-25T12:07:30;20.10;66.80
77829;DHT22;67019;51.034;3.728;2023-05-25T12:10:08;19.70;68.90
77829;DHT22;67019;51.034;3.728;2023-05-25T12:15:28;19.50;68.40
77829;DHT22;67019;51.034;3.728;2023-05-25T12:17:56;19.60;68.30
77829;DHT22;67019;51.034;3.728;2023-05-25T12:20:24;19.10;69.80
77829;DHT22;67019;51.034;3.728;2023-05-25T12:22:54;19.30;70.30
77829;DHT22;67019;51.034;3.728;2023-05-25T12:25:26;19.30;69.00
77829;DHT22;67019;51.034;3.728;2023-05-25T12:28:13;20.00;68.90
77829;DHT22;67019;51.034;3.728;2023-05-25T12:30:45;19.80;68.60
77829;DHT22;67019;51.034;3.728;2023-05-25T12:33:14;19.40;69.40
77829;DHT22;67019;51.034;3.728;2023-05-25T12:35:49;19.50;69.60
77829;DHT22;67019;51.034;3.728;2023-05-25T12:38:20;19.50;68.70
77829;DHT22;67019;51.034;3.728;2023-05-25T12:41:04;19.90;69.50
77829;DHT22;67019;51.034;3.728;2023-05-25T12:43:39;20.10;68.70
77829;DHT22;67019;51.034;3.728;2023-05-25T12:46:09;20.30;67.20
77829;DHT22;67019;51.034;3.728;2023-05-25T12:48:36;19.80;69.40
77829;DHT22;67019;51.034;3.728;2023-05-25T12:51:04;19.60;69.40
77829;DHT22;67019;51.034;3.728;2023-05-25T12:53:45;19.50;70.20
77829;DHT22;67019;51.034;3.728;2023-05-25T12:56:02;19.70;70.00
77829;DHT22;67019;51.034;3.728;2023-05-25T12:58:30;20.00;69.20
77829;DHT22;67019;51.034;3.728;2023-05-25T13:01:15;20.20;67.40
77829;DHT22;67019;51.034;3.728;2023-05-25T13:03:46;20.00;66.60
77829;DHT22;67019;51.034;3.728;2023-05-25T13:06:14;20.00;67.40
77829;DHT22;67019;51.034;3.728;2023-05-25T13:08:42;20.30;67.10
77829;DHT22;67019;51.034;3.728;2023-05-25T13:11:13;20.00;68.10
77829;DHT22;67019;51.034;3.728;2023-05-25T13:13:40;20.50;65.10
77829;DHT22;67019;51.034;3.728;2023-05-25T13:16:08;20.50;65.40
77829;DHT22;67019;51.034;3.728;2023-05-25T13:18:38;20.20;67.80
77829;DHT22;67019;51.034;3.728;2023-05-25T13:21:09;20.80;65.40
77829;DHT22;67019;51.034;3.728;2023-05-25T13:23:38;20.50;65.60
77829;DHT22;67019;51.034;3.728;2023-05-25T13:26:05;20.00;66.50
77829;DHT22;67019;51.034;3.728;2023-05-25T13:28:33;20.10;67.00
77829;DHT22;67019;51.034;3.728;2023-05-25T13:31:00;19.30;68.80
77829;DHT22;67019;51.034;3.728;2023-05-25T13:33:30;19.60;68.10
77829;DHT22;67019;51.034;3.728;2023-05-25T13:35:57;19.80;67.60
77829;DHT22;67019;51.034;3.728;2023-05-25T13:38:33;20.30;66.10
77829;DHT22;67019;51.034;3.728;2023-05-25T13:41:02;20.60;64.30
77829;DHT22;67019;51.034;3.728;2023-05-25T13:43:32;21.00;63.40
77829;DHT22;67019;51.034;3.728;2023-05-25T13:45:59;21.00;62.90
77829;DHT22;67019;51.034;3.728;2023-05-25T13:48:29;21.90;61.50
77829;DHT22;67019;51.034;3.728;2023-05-25T13:50:57;21.70;60.00
77829;DHT22;67019;51.034;3.728;2023-05-25T13:53:25;21.60;59.90
77829;DHT22;67019;51.034;3.728;2023-05-25T13:55:53;21.60;60.90
77829;DHT22;67019;51.034;3.728;2023-05-25T13:58:21;21.70;61.20
77829;DHT22;67019;51.034;3.728;2023-05-25T14:00:50;22.40;58.30
77829;DHT22;67019;51.034;3.728;2023-05-25T14:03:19;24.00;56.10
77829;DHT22;67019;51.034;3.728;2023-05-25T14:05:47;24.60;54.10
77829;DHT22;67019;51.034;3.728;2023-05-25T14:08:15;24.30;55.00
77829;DHT22;67019;51.034;3.728;2023-05-25T14:10:42;24.90;53.90
77829;DHT22;67019;51.034;3.728;2023-05-25T14:13:12;24.80;53.90
77829;DHT22;67019;51.034;3.728;2023-05-25T14:15:42;23.30;56.30
77829;DHT22;67019;51.034;3.728;2023-05-25T14:18:10;22.30;58.20
77829;DHT22;67019;51.034;3.728;2023-05-25T14:20:42;22.30;58.20
77829;DHT22;67019;51.034;3.728;2023-05-25T14:23:09;22.70;57.20
77829;DHT22;67019;51.034;3.728;2023-05-25T14:25:38;23.80;56.00
77829;DHT22;67019;51.034;3.728;2023-05-25T14:28:06;23.40;55.20
77829;DHT22;67019;51.034;3.728;2023-05-25T14:30:33;23.00;57.40
77829;DHT22;67019;51.034;3.728;2023-05-25T14:33:01;23.50;55.60
77829;DHT22;67019;51.034;3.728;2023-05-25T14:35:30;22.70;56.30
77829;DHT22;67019;51.034;3.728;2023-05-25T14:37:57;22.80;57.00
77829;DHT22;67019;51.034;3.728;2023-05-25T14:40:25;22.30;57.80
77829;DHT22;67019;51.034;3.728;2023-05-25T14:42:53;22.50;57.30
77829;DHT22;67019;51.034;3.728;2023-05-25T14:45:21;23.10;56.30
77829;DHT22;67019;51.034;3.728;2023-05-25T14:47:48;23.80;55.20
77829;DHT22;67019;51.034;3.728;2023-05-25T14:50:19;25.10;51.80
77829;DHT22;67019;51.034;3.728;2023-05-25T14:52:47;26.10;50.20
77829;DHT22;67019;51.034;3.728;2023-05-25T14:55:15;25.20;50.40
77829;DHT22;67019;51.034;3.728;2023-05-25T14:57:45;24.20;52.10
77829;DHT22;67019;51.034;3.728;2023-05-25T15:00:15;23.20;54.10
77829;DHT22;67019;51.034;3.728;2023-05-25T15:02:44;23.50;54.60
77829;DHT22;67019;51.034;3.728;2023-05-25T15:05:13;24.60;52.00
77829;DHT22;67019;51.034;3.728;2023-05-25T15:07:41;25.80;50.30
77829;DHT22;67019;51.034;3.728;2023-05-25T15:10:09;26.30;48.60
77829;DHT22;67019;51.034;3.728;2023-05-25T15:12:36;26.50;47.60
77829;DHT22;67019;51.034;3.728;2023-05-25T15:15:04;26.50;48.00
77829;DHT22;67019;51.034;3.728;2023-05-25T15:17:32;26.10;47.70
77829;DHT22;67019;51.034;3.728;2023-05-25T15:20:00;25.80;48.20
77829;DHT22;67019;51.034;3.728;2023-05-25T15:22:28;25.60;48.00
77829;DHT22;67019;51.034;3.728;2023-05-25T15:24:57;24.10;50.50
77829;DHT22;67019;51.034;3.728;2023-05-25T15:27:25;24.10;51.00
77829;DHT22;67019;51.034;3.728;2023-05-25T15:29:53;24.20;50.70
77829;DHT22;67019;51.034;3.728;2023-05-25T15:32:20;22.60;54.00
77829;DHT22;67019;51.034;3.728;2023-05-25T15:34:48;22.10;55.90
77829;DHT22;67019;51.034;3.728;2023-05-25T15:37:15;22.20;54.90
77829;DHT22;67019;51.034;3.728;2023-05-25T15:39:43;23.50;53.00
77829;DHT22;67019;51.034;3.728;2023-05-25T15:42:11;25.30;50.60
77829;DHT22;67019;51.034;3.728;2023-05-25T15:44:38;25.50;48.20
77829;DHT22;67019;51.034;3.728;2023-05-25T15:47:06;24.10;51.20
77829;DHT22;67019;51.034;3.728;2023-05-25T15:49:35;23.20;53.10
77829;DHT22;67019;51.034;3.728;2023-05-25T15:52:06;23.90;52.40
77829;DHT22;67019;51.034;3.728;2023-05-25T15:54:33;24.60;51.20
77829;DHT22;67019;51.034;3.728;2023-05-25T15:57:01;24.30;52.20
77829;DHT22;67019;51.034;3.728;2023-05-25T15:59:40;24.30;51.70
77829;DHT22;67019;51.034;3.728;2023-05-25T16:02:10;25.10;50.50
77829;DHT22;67019;51.034;3.728;2023-05-25T16:04:38;24.20;51.20
77829;DHT22;67019;51.034;3.728;2023-05-25T16:07:07;23.00;53.90
77829;DHT22;67019;51.034;3.728;2023-05-25T16:09:35;22.80;55.30
77829;DHT22;67019;51.034;3.728;2023-05-25T16:12:04;23.90;53.10
77829;DHT22;67019;51.034;3.728;2023-05-25T16:14:32;23.90;52.30
77829;DHT22;67019;51.034;3.728;2023-05-25T16:17:00;22.80;55.60
77829;DHT22;67019;51.034;3.728;2023-05-25T16:19:28;23.70;53.90
77829;DHT22;67019;51.034;3.728;2023-05-25T16:21:55;22.80;55.30
77829;DHT22;67019;51.034;3.728;2023-05-25T16:24:27;22.40;56.40
77829;DHT22;67019;51.034;3.728;2023-05-25T16:26:54;21.90;56.40
77829;DHT22;67019;51.034;3.728;2023-05-25T16:29:25;21.70;58.70
77829;DHT22;67019;51.034;3.728;2023-05-25T16:31:53;22.40;56.60
77829;DHT22;67019;51.034;3.728;2023-05-25T16:34:23;23.60;53.70
77829;DHT22;67019;51.034;3.728;2023-05-25T16:36:52;24.10;52.50
77829;DHT22;67019;51.034;3.728;2023-05-25T16:39:19;24.70;51.70
77829;DHT22;67019;51.034;3.728;2023-05-25T16:41:49;23.30;54.10
77829;DHT22;67019;51.034;3.728;2023-05-25T16:44:17;21.40;59.40
77829;DHT22;67019;51.034;3.728;2023-05-25T16:46:46;20.60;61.30
77829;DHT22;67019;51.034;3.728;2023-05-25T16:49:13;20.40;61.70
77829;DHT22;67019;51.034;3.728;2023-05-25T16:51:41;19.90;64.80
77829;DHT22;67019;51.034;3.728;2023-05-25T16:54:09;19.90;63.80
77829;DHT22;67019;51.034;3.728;2023-05-25T16:56:36;20.00;63.60
77829;DHT22;67019;51.034;3.728;2023-05-25T16:59:04;20.40;62.40
77829;DHT22;67019;51.034;3.728;2023-05-25T17:01:32;21.40;59.30
77829;DHT22;67019;51.034;3.728;2023-05-25T17:03:59;22.60;55.70
77829;DHT22;67019;51.034;3.728;2023-05-25T17:06:29;23.20;54.10
77829;DHT22;67019;51.034;3.728;2023-05-25T17:08:57;23.30;53.40
77829;DHT22;67019;51.034;3.728;2023-05-25T17:11:28;23.90;52.40
77829;DHT22;67019;51.034;3.728;2023-05-25T17:13:57;23.80;52.20
77829;DHT22;67019;51.034;3.728;2023-05-25T17:16:25;23.80;51.40
77829;DHT22;67019;51.034;3.728;2023-05-25T17:18:53;23.90;51.70
77829;DHT22;67019;51.034;3.728;2023-05-25T17:21:20;23.60;52.30
77829;DHT22;67019;51.034;3.728;2023-05-25T17:23:50;22.50;54.90
77829;DHT22;67019;51.034;3.728;2023-05-25T17:26:18;22.50;55.10
77829;DHT22;67019;51.034;3.728;2023-05-25T17:28:52;21.90;55.80
77829;DHT22;67019;51.034;3.728;2023-05-25T17:34:15;20.90;57.80
77829;DHT22;67019;51.034;3.728;2023-05-25T17:36:48;20.30;60.60
77829;DHT22;67019;51.034;3.728;2023-05-25T17:39:19;19.40;62.80